Time;durP1;ratioP1;P1;durP2;ratioP2;P2;SDS_P1;SDS_P2;PMS_P1;PMS_P2;Temp;Humidity;BMP_temperature;BMP_pressure;BME280_temperature;BME280_humidity;BME280_pressure;Samples;Min_cycle;Max_cycle;Signal;HPM_P1;HPM_P2
2022/11/19 00:00:48;;;;;;;3.65;1.30;;;;;;;8.49;77.36;98974.28;1087276;54;20030;-80
2022/11/19 00:01:50;;;;;;;3.53;1.27;;;;;;;8.57;77.19;98976.97;1087319;54;20053;-80
2022/11/19 00:02:55;;;;;;;3.63;1.40;;;;;;;8.50;77.49;98973.25;1087802;46;20045;-80
2022/11/19 00:03:57;;;;;;;2.70;1.00;;;;;;;8.68;77.15;98973.19;1087445;47;20102;-79
2022/11/19 00:05:01;;;;;;;3.40;1.00;;;;;;;8.63;76.90;98980.00;1087214;54;20107;-80
2022/11/19 00:06:05;;;;;;;3.78;1.20;;;;;;;8.74;76.54;98977.88;1087238;54;20034;-79
2022/11/19 00:07:12;;;;;;;3.65;1.15;;;;;;;8.70;76.95;98968.56;1087863;46;20046;-80
2022/11/19 00:08:16;;;;;;;3.20;1.10;;;;;;;8.60;77.21;98967.81;1087354;54;20026;-79
2022/11/19 00:09:21;;;;;;;4.78;1.30;;;;;;;8.40;77.73;98967.19;1087294;47;20034;-79
2022/11/19 00:10:22;;;;;;;5.00;1.10;;;;;;;8.37;77.97;98965.66;1087249;54;20046;-79
2022/11/19 00:12:57;;;;;;;3.15;0.93;;;;;;;8.37;77.75;98965.66;1087270;54;20113;-80
2022/11/19 00:13:58;;;;;;;2.42;1.00;;;;;;;8.52;77.59;98965.13;1087325;54;20055;-80
2022/11/19 00:15:02;;;;;;;2.80;1.02;;;;;;;8.42;77.84;98959.84;1087489;46;20022;-79
2022/11/19 00:16:06;;;;;;;4.00;1.20;;;;;;;8.37;78.26;98963.00;1087872;46;20034;-79
2022/11/19 00:17:10;;;;;;;3.53;1.30;;;;;;;8.46;77.98;98963.91;1087244;54;20046;-80
2022/11/19 00:18:12;;;;;;;3.72;1.38;;;;;;;8.52;77.99;98967.78;1087283;54;20041;-80
2022/11/19 00:19:16;;;;;;;3.70;1.27;;;;;;;8.48;77.90;98975.25;1087221;54;20049;-80
2022/11/19 00:20:18;;;;;;;2.90;1.15;;;;;;;8.45;78.12;98967.53;1087162;54;20038;-80
2022/11/19 00:21:22;;;;;;;5.63;1.60;;;;;;;8.43;78.30;98974.84;1087212;54;20054;-80
2022/11/19 00:22:26;;;;;;;3.72;1.42;;;;;;;8.57;77.72;98969.00;1087226;54;20034;-79
2022/11/19 00:23:30;;;;;;;4.15;1.30;;;;;;;8.50;77.87;98973.25;1092992;39;20294;-80
2022/11/19 00:24:32;;;;;;;3.53;1.10;;;;;;;8.44;78.49;98965.88;1087200;54;20030;-80
2022/11/19 00:25:36;;;;;;;3.88;1.13;;;;;;;8.51;77.88;98969.59;1090369;39;20867;-79
2022/11/19 00:26:37;;;;;;;4.18;1.20;;;;;;;8.52;77.95;98975.78;1087620;39;21077;-80
2022/11/19 00:27:41;;;;;;;2.80;1.20;;;;;;;8.52;77.83;98959.78;1087298;54;20718;-79
2022/11/19 00:28:43;;;;;;;3.30;1.17;;;;;;;8.55;77.94;98970.97;1089137;46;20038;-80
2022/11/19 00:29:47;;;;;;;3.45;1.23;;;;;;;8.50;78.15;98967.94;1087991;46;20120;-79
2022/11/19 00:30:49;;;;;;;2.80;1.05;;;;;;;8.37;78.41;98963.00;1087194;54;20035;-79
2022/11/19 00:31:53;;;;;;;3.78;1.48;;;;;;;8.48;78.26;98969.09;1087216;54;20030;-80
2022/11/19 00:39:27;;;;;;;;;;;;;;;;;;;;;
2022/11/19 13:18:25;;;;;;;7.93;5.90;;;;;;;5.72;79.83;99271.25;1086902;54;20376;-81
2022/11/19 13:19:30;;;;;;;9.00;6.57;;;;;;;5.59;79.78;99269.66;1086958;54;20034;-77
2022/11/19 13:20:47;;;;;;;10.40;6.95;;;;;;;5.53;79.58;99272.00;1087648;54;20025;-84
2022/11/19 13:24:15;;;;;;;8.60;6.60;;;;;;;5.09;80.92;99275.66;1087144;54;20031;-80
2022/11/19 13:25:25;;;;;;;9.27;6.35;;;;;;;5.14;80.98;99278.75;1088922;47;20019;-81
2022/11/19 13:26:30;;;;;;;9.23;6.57;;;;;;;5.16;80.83;99275.94;1090198;47;20041;-81
2022/11/19 13:27:35;;;;;;;8.52;6.15;;;;;;;5.18;80.97;99278.50;1088883;47;20015;-82
2022/11/19 13:28:58;;;;;;;8.63;6.22;;;;;;;5.12;81.13;99272.72;1088317;54;20078;-83
2022/11/19 13:31:13;;;;;;;7.57;5.65;;;;;;;5.11;80.82;99280.81;1087712;54;20031;-83
2022/11/19 13:33:35;;;;;;;8.90;6.35;;;;;;;5.04;80.85;99277.81;1087664;54;20022;-83
2022/11/19 13:37:03;;;;;;;9.07;6.10;;;;;;;4.91;81.25;99288.59;1080881;54;20031;-84
2022/11/19 13:38:18;;;;;;;9.55;6.40;;;;;;;4.91;81.78;99293.91;1088801;47;20058;-83
2022/11/19 13:39:33;;;;;;;8.15;5.88;;;;;;;4.92;81.89;99284.13;1088177;54;20050;-84
2022/11/19 13:40:42;;;;;;;8.60;5.78;;;;;;;4.86;82.38;99290.81;1088181;54;20022;-83
2022/11/19 13:45:53;;;;;;;8.95;6.10;;;;;;;4.64;82.93;99292.56;1087902;54;20027;-83
2022/11/19 13:47:01;;;;;;;7.93;5.32;;;;;;;4.58;83.42;99286.91;1087765;54;20038;-84
2022/11/19 13:48:09;;;;;;;9.80;6.18;;;;;;;4.58;83.54;99284.28;1088816;47;20038;-83
2022/11/19 13:49:22;;;;;;;9.00;6.53;;;;;;;4.53;83.46;99290.75;1088104;54;20014;-84
2022/11/19 13:50:32;;;;;;;10.32;5.90;;;;;;;4.44;83.76;99290.69;1088073;54;20019;-84
2022/11/19 13:51:39;;;;;;;;;;;;;;;4.36;85.06;99292.16;1088107;54;20039;-82
2022/11/19 13:52:45;;;;;;;9.93;6.10;;;;;;;4.45;84.59;99289.72;1087740;54;19967;-83
2022/11/19 13:56:26;;;;;;;9.00;6.15;;;;;;;4.37;84.64;99287.69;1079179;54;21902;31
2022/11/19 13:57:34;;;;;;;10.15;6.25;;;;;;;4.28;84.86;99293.72;1094304;39;20516;-83
2022/11/19 13:58:37;;;;;;;8.27;5.53;;;;;;;4.39;84.54;99288.41;1088350;54;20042;-84
2022/11/19 13:59:46;;;;;;;7.63;5.32;;;;;;;4.43;84.37;99283.69;1088250;54;20588;-84
2022/11/19 14:01:29;;;;;;;9.20;5.60;;;;;;;4.51;84.32;99283.91;1088354;54;20114;-82
2022/11/19 14:03:00;;;;;;;7.38;4.80;;;;;;;4.57;84.44;99278.16;1088107;54;20026;-83
2022/11/19 14:04:58;;;;;;;;;;;;;;;;;;;;;
2022/11/19 14:06:31;;;;;;;7.63;5.38;;;;;;;4.66;83.97;99277.41;1087948;54;20019;-84
2022/11/19 14:10:04;;;;;;;8.27;5.28;;;;;;;4.80;83.65;99280.69;1088309;54;20026;-85
2022/11/19 14:11:20;;;;;;;8.10;5.47;;;;;;;4.79;83.50;99282.53;1083712;54;20062;31
2022/11/19 14:12:42;;;;;;;8.52;5.10;;;;;;;4.80;83.75;99292.16;1087518;54;20036;-79
2022/11/19 14:14:00;;;;;;;7.32;5.00;;;;;;;4.84;83.76;99282.97;1087257;54;21287;-79
2022/11/19 14:27:20;;;;;;;6.43;3.97;;;;;;;4.88;83.73;99283.53;1087176;54;20086;-78
2022/11/19 14:28:43;;;;;;;6.07;4.35;;;;;;;4.84;83.75;99284.78;1087170;54;20039;-79
2022/11/19 14:29:55;;;;;;;5.85;3.53;;;;;;;4.89;83.75;99284.41;1087230;54;20054;-79
2022/11/19 14:31:04;;;;;;;5.65;3.13;;;;;;;4.97;83.33;99276.66;1087184;54;20042;-80
2022/11/19 14:32:27;;;;;;;6.80;3.78;;;;;;;4.89;83.66;99289.69;1087366;47;20154;-79
2022/11/19 14:33:58;;;;;;;6.28;3.80;;;;;;;4.95;83.53;99284.75;1087217;54;20703;-79
2022/11/19 14:35:35;;;;;;;5.45;3.40;;;;;;;4.93;83.89;99285.81;1087200;54;20042;-78
2022/11/19 14:36:49;;;;;;;5.38;3.40;;;;;;;5.00;83.58;99287.00;1086865;54;20030;-79
2022/11/19 14:37:53;;;;;;;6.05;3.20;;;;;;;5.09;83.24;99295.97;1086843;54;20050;-79
2022/11/19 14:39:01;;;;;;;5.40;3.38;;;;;;;5.14;83.33;99299.09;1086995;54;20037;-79
2022/11/19 14:40:20;;;;;;;5.45;3.30;;;;;;;5.13;83.29;99300.91;1088804;39;20880;-78
2022/11/19 14:41:33;;;;;;;5.65;3.70;;;;;;;5.14;83.33;99297.28;1086707;54;20588;-79
2022/11/19 14:44:06;;;;;;;6.53;4.07;;;;;;;5.07;83.45;99296.13;1086902;54;20050;-77
2022/11/19 14:44:08;;;;;;;6.55;4.15;;;;;;;5.09;83.75;99304.78;1087275;54;20026;-77
2022/11/19 14:45:23;;;;;;;5.45;3.65;;;;;;;5.14;83.40;99304.41;1087375;54;20026;-78
2022/11/19 14:46:26;;;;;;;6.40;4.05;;;;;;;5.10;83.61;99295.84;1088628;46;20113;-79
2022/11/19 14:47:36;;;;;;;5.50;3.60;;;;;;;5.14;83.59;99299.94;1087184;54;20030;-78
2022/11/19 14:48:50;;;;;;;5.80;3.70;;;;;;;5.07;83.67;99296.13;1087167;54;20034;-78
2022/11/19 14:49:56;;;;;;;7.00;4.47;;;;;;;5.00;84.11;99295.78;1087244;54;20030;-78
2022/11/19 14:51:05;;;;;;;6.78;4.13;;;;;;;4.86;84.22;99297.88;1086887;54;20034;-78
2022/11/19 14:52:25;;;;;;;6.00;3.95;;;;;;;4.90;84.52;99301.97;1087047;54;20030;-78
2022/11/19 14:53:26;;;;;;;6.20;3.58;;;;;;;4.98;84.23;99303.00;1087226;54;20026;-78
2022/11/19 14:54:34;;;;;;;7.65;4.53;;;;;;;5.02;84.48;99300.94;1086857;54;20038;-78
2022/11/19 14:55:38;;;;;;;6.35;4.10;;;;;;;5.05;84.22;99299.88;1086772;54;20038;-78
2022/11/19 14:56:44;;;;;;;6.90;4.43;;;;;;;5.01;84.39;99304.56;1087166;39;20579;-78
2022/11/19 14:57:57;;;;;;;6.53;4.28;;;;;;;4.93;84.87;99297.28;1087558;46;20050;-78
2022/11/19 14:59:07;;;;;;;6.38;4.40;;;;;;;4.86;84.51;99298.75;1086942;54;20042;-78
2022/11/19 15:00:31;;;;;;;7.78;4.65;;;;;;;4.82;85.07;99303.44;1086983;54;20034;-79
2022/11/19 15:01:34;;;;;;;6.78;4.63;;;;;;;4.84;84.91;99298.84;1086829;54;20030;-79
2022/11/19 15:02:44;;;;;;;5.90;4.15;;;;;;;4.88;84.90;99306.56;1088571;31;20690;-78
2022/11/19 15:03:51;;;;;;;7.38;4.78;;;;;;;4.86;85.04;99303.19;1086675;54;20031;-79
2022/11/19 15:05:00;;;;;;;8.15;4.55;;;;;;;4.82;85.26;99300.78;1087020;54;20035;-79
2022/11/19 15:06:06;;;;;;;6.88;4.22;;;;;;;4.82;85.67;99294.66;1086877;54;20054;-78
2022/11/19 15:07:13;;;;;;;7.63;4.97;;;;;;;4.78;85.38;99294.06;1086976;54;20034;-78
2022/11/19 15:08:48;;;;;;;6.43;4.38;;;;;;;4.79;85.87;99311.66;1088658;31;20693;-79
2022/11/19 15:10:18;;;;;;;6.65;4.20;;;;;;;4.87;85.25;99312.81;1086873;54;20034;-78
2022/11/19 15:11:22;;;;;;;5.97;3.80;;;;;;;4.89;85.48;99300.28;1086918;54;20042;-79
2022/11/19 15:12:44;;;;;;;7.07;4.18;;;;;;;4.90;84.99;99296.69;1088633;39;21101;-78
2022/11/19 15:13:49;;;;;;;6.13;4.13;;;;;;;4.92;85.17;99306.19;1087128;54;20030;-78
2022/11/19 15:15:05;;;;;;;6.70;4.43;;;;;;;4.96;84.84;99296.16;1088442;39;20476;-79
2022/11/19 15:16:21;;;;;;;6.80;4.07;;;;;;;5.01;84.82;99301.91;1087057;54;21083;-78
2022/11/19 15:17:23;;;;;;;6.22;3.75;;;;;;;5.08;84.50;99297.81;1086971;54;20058;-77
2022/11/19 15:19:01;;;;;;;6.60;4.18;;;;;;;5.07;85.03;99295.25;1087016;54;20030;-78
2022/11/19 15:20:25;;;;;;;8.18;3.95;;;;;;;5.02;84.72;99292.16;1086906;54;20050;-78
2022/11/19 15:21:49;;;;;;;6.43;4.47;;;;;;;5.00;84.81;99290.50;1087732;39;20557;-79
2022/11/19 15:23:05;;;;;;;7.03;4.82;;;;;;;5.02;84.65;99293.00;1087697;46;20793;-78
2022/11/19 15:24:22;;;;;;;6.57;4.30;;;;;;;5.02;84.56;99294.81;1086764;54;20034;-79
2022/11/19 15:25:35;;;;;;;6.28;4.05;;;;;;;5.03;85.03;99294.69;1086647;54;20098;-78
2022/11/19 15:26:48;;;;;;;6.60;4.25;;;;;;;5.07;85.10;99297.91;1086890;54;20042;-77
2022/11/19 15:28:01;;;;;;;5.80;3.63;;;;;;;5.11;84.95;99294.88;1087036;54;20070;-77
2022/11/19 15:29:17;;;;;;;6.28;3.97;;;;;;;5.14;85.00;99294.63;1087640;31;20668;-79
2022/11/19 15:30:24;;;;;;;5.70;3.88;;;;;;;5.19;84.65;99296.91;1087120;54;20117;-78
2022/11/19 15:31:37;;;;;;;5.85;3.72;;;;;;;5.22;85.06;99299.31;1086980;54;20050;-78
2022/11/19 15:32:53;;;;;;;5.72;3.42;;;;;;;5.18;84.62;99291.75;1087439;46;20130;-78
2022/11/19 15:34:26;;;;;;;6.13;4.57;;;;;;;4.99;83.96;99298.56;1087103;54;20053;-79
2022/11/19 15:36:08;;;;;;;6.82;4.22;;;;;;;5.00;85.14;99292.31;1089902;31;20748;-77
2022/11/19 15:37:16;;;;;;;6.13;3.85;;;;;;;5.05;84.95;99295.41;1086914;54;20046;-78
2022/11/19 15:38:28;;;;;;;5.72;3.60;;;;;;;5.10;84.83;99305.63;1086906;54;20061;-78
2022/11/19 15:39:40;;;;;;;5.85;3.63;;;;;;;5.14;84.63;99305.22;1087051;54;20061;-78
2022/11/19 15:40:44;;;;;;;5.00;3.30;;;;;;;5.20;84.22;99303.88;1086854;54;20069;-78
2022/11/19 15:42:02;;;;;;;5.53;3.55;;;;;;;5.22;84.20;99303.75;1086968;54;20038;-78
2022/11/19 15:43:15;;;;;;;5.57;3.53;;;;;;;5.23;84.20;99301.00;1087130;54;20035;-78
2022/11/19 15:44:18;;;;;;;6.00;3.70;;;;;;;5.20;84.54;99297.72;1087072;54;20923;-77
2022/11/19 15:45:25;;;;;;;6.38;3.60;;;;;;;5.25;84.44;99298.19;1086895;54;20039;-78
2022/11/19 15:46:37;;;;;;;7.88;5.40;;;;;;;5.29;84.12;99299.63;1086943;54;20073;-78
2022/11/19 15:47:48;;;;;;;12.55;8.10;;;;;;;5.26;83.92;99303.34;1087074;54;20030;-78
2022/11/19 15:48:56;;;;;;;8.35;5.43;;;;;;;5.22;83.94;99301.94;1087000;54;20130;-78
2022/11/19 15:50:02;;;;;;;6.85;4.40;;;;;;;5.15;83.93;99300.75;1087010;54;20057;-78
2022/11/19 15:51:06;;;;;;;6.65;4.53;;;;;;;5.20;84.00;99300.38;1087170;54;20054;-78
2022/11/19 15:52:20;;;;;;;7.00;4.40;;;;;;;5.21;84.02;99312.66;1086941;54;20111;-79
2022/11/19 15:53:23;;;;;;;6.60;4.05;;;;;;;5.24;84.05;99310.59;1092739;39;20291;-79
2022/11/19 15:54:31;;;;;;;6.43;4.00;;;;;;;5.11;83.84;99309.94;1087030;54;20030;-78
2022/11/19 15:55:38;;;;;;;6.25;3.78;;;;;;;4.98;83.85;99313.59;1088849;31;20741;-78
2022/11/19 15:56:49;;;;;;;5.15;3.25;;;;;;;5.05;84.11;99311.31;1087161;54;20073;-79
2022/11/19 15:57:53;;;;;;;5.22;3.17;;;;;;;5.14;83.88;99315.84;1087054;54;20110;-78
2022/11/19 15:58:55;;;;;;;5.00;3.10;;;;;;;5.16;83.77;99315.69;1087146;54;20083;-78
2022/11/19 16:00:03;;;;;;;5.53;3.60;;;;;;;5.13;83.90;99313.31;1088161;39;20530;-78
2022/11/19 16:01:10;;;;;;;4.88;2.95;;;;;;;5.07;83.16;99314.66;1087094;54;20038;-78
2022/11/19 16:02:20;;;;;;;5.00;3.03;;;;;;;5.07;83.61;99314.66;1086999;54;20042;-78
2022/11/19 16:03:25;;;;;;;5.82;3.50;;;;;;;5.08;83.51;99321.66;1087175;54;20090;-78
2022/11/19 16:04:33;;;;;;;5.00;3.20;;;;;;;5.12;83.44;99315.13;1087049;54;20066;-78
2022/11/19 16:05:37;;;;;;;4.93;2.80;;;;;;;5.15;83.62;99314.88;1087098;54;20038;-77
2022/11/19 16:06:44;;;;;;;6.07;3.30;;;;;;;5.19;83.51;99311.97;1087464;39;20567;-78
2022/11/19 16:07:49;;;;;;;4.80;3.13;;;;;;;5.21;83.27;99313.50;1086941;54;20046;-77
2022/11/19 16:08:53;;;;;;;5.40;3.35;;;;;;;5.25;83.18;99309.63;1087639;46;20045;-78
2022/11/19 16:09:58;;;;;;;5.82;4.05;;;;;;;5.23;83.09;99314.25;1086972;54;20038;-79
2022/11/19 16:17:39;;;;;;;6.90;4.13;;;;;;;4.92;83.86;99305.31;1090365;39;20539;-80
2022/11/19 16:18:48;;;;;;;5.65;3.80;;;;;;;4.94;83.47;99312.19;1086932;47;20263;-78
2022/11/19 16:20:04;;;;;;;6.68;4.45;;;;;;;4.90;83.42;99316.06;1086540;54;20034;-78
2022/11/19 16:21:08;;;;;;;6.15;3.80;;;;;;;4.95;83.54;99311.22;1086819;54;20031;-79
2022/11/19 16:22:09;;;;;;;7.05;4.40;;;;;;;4.95;83.52;99310.38;1086692;54;20042;-79
2022/11/19 16:23:19;;;;;;;5.80;4.00;;;;;;;4.98;83.57;99318.09;1086855;54;20043;-78
2022/11/19 16:25:44;;;;;;;6.38;4.10;;;;;;;4.97;83.52;99317.22;1087009;54;20034;-79
2022/11/19 16:26:48;;;;;;;6.28;4.15;;;;;;;4.97;83.45;99319.88;1086717;54;20042;-78
2022/11/19 16:27:56;;;;;;;7.15;4.70;;;;;;;4.96;83.20;99317.34;1086794;54;20038;-78
2022/11/19 16:29:03;;;;;;;6.40;3.65;;;;;;;4.99;83.37;99322.41;1086691;54;20109;-77
2022/11/19 16:30:14;;;;;;;5.43;3.53;;;;;;;5.01;83.12;99320.47;1086828;54;20061;-78
2022/11/19 16:31:18;;;;;;;5.88;3.80;;;;;;;5.00;83.34;99324.09;1086884;47;20034;-78
2022/11/19 16:32:23;;;;;;;5.32;3.40;;;;;;;5.04;82.88;99322.03;1086799;54;20069;-78
2022/11/19 16:33:30;;;;;;;6.30;4.68;;;;;;;4.91;82.88;99322.22;1086844;54;20062;-78
2022/11/19 16:34:33;;;;;;;5.80;3.60;;;;;;;4.81;82.94;99319.47;1086961;54;20129;-78
2022/11/19 16:35:37;;;;;;;6.60;3.95;;;;;;;4.72;82.83;99326.38;1086890;54;20054;-78
2022/11/19 16:36:39;;;;;;;5.65;3.80;;;;;;;4.64;83.38;99320.81;1086845;54;20042;-77
2022/11/19 16:37:43;;;;;;;6.55;3.85;;;;;;;4.62;83.53;99323.59;1086791;54;20030;-77
2022/11/19 16:38:49;;;;;;;7.07;4.53;;;;;;;4.51;83.54;99319.19;1086830;54;20072;-77
2022/11/19 16:39:52;;;;;;;6.57;4.57;;;;;;;4.49;83.98;99322.91;1086732;54;20046;-78
2022/11/19 16:42:21;;;;;;;6.50;4.00;;;;;;;4.56;83.78;99325.91;1086916;54;20031;-77
2022/11/19 16:43:23;;;;;;;6.80;4.00;;;;;;;4.62;83.94;99328.06;1086676;54;20042;-78
2022/11/19 16:44:30;;;;;;;6.88;4.38;;;;;;;4.53;83.69;99327.81;1086931;54;20041;-77
2022/11/19 16:45:32;;;;;;;7.07;4.72;;;;;;;4.56;83.35;99325.91;1086869;54;20054;-78
2022/11/19 16:46:37;;;;;;;7.63;5.05;;;;;;;4.52;83.43;99330.59;1086781;54;20078;-77
2022/11/19 16:47:51;;;;;;;6.72;4.55;;;;;;;4.40;83.73;99331.56;1086976;54;20098;-78
2022/11/19 16:48:56;;;;;;;7.03;5.25;;;;;;;4.27;84.20;99321.13;1086923;54;20034;-77
2022/11/19 16:50:03;;;;;;;7.03;5.03;;;;;;;4.24;84.64;99331.97;1086875;54;20030;-78
2022/11/19 16:51:36;;;;;;;7.45;5.30;;;;;;;4.11;84.86;99329.47;1086949;54;20094;-78
2022/11/19 16:52:40;;;;;;;8.18;5.97;;;;;;;4.14;85.51;99322.13;1086888;54;20425;-78
2022/11/19 16:53:48;;;;;;;8.85;6.30;;;;;;;4.12;85.79;99331.97;1086800;54;20030;-77
2022/11/19 16:54:53;;;;;;;9.13;5.20;;;;;;;4.19;85.65;99325.25;1086805;54;20050;-77
2022/11/19 16:55:55;;;;;;;8.27;5.85;;;;;;;4.26;85.30;99319.44;1086476;54;20797;-78
2022/11/19 16:56:59;;;;;;;7.18;5.25;;;;;;;4.33;85.14;99325.97;1086722;54;20034;-77
2022/11/19 16:58:13;;;;;;;8.57;6.03;;;;;;;4.31;85.45;99327.88;1087164;54;20073;-78
2022/11/19 16:59:23;;;;;;;8.10;6.05;;;;;;;4.30;84.88;99320.91;1086874;54;20030;-78
2022/11/19 17:00:29;;;;;;;8.10;5.72;;;;;;;4.24;84.92;99332.81;1086751;54;20069;-78
2022/11/19 17:01:34;;;;;;;8.18;5.90;;;;;;;4.14;84.94;99331.84;1088684;39;20190;-79
2022/11/19 17:02:41;;;;;;;7.32;5.10;;;;;;;4.09;84.93;99329.56;1086490;54;20057;-80
2022/11/19 17:03:46;;;;;;;6.57;4.95;;;;;;;4.01;85.24;99335.47;1086854;54;20880;-78
2022/11/19 17:04:50;;;;;;;6.90;4.82;;;;;;;4.00;85.56;99331.16;1086669;54;20042;-78
2022/11/19 17:05:55;;;;;;;7.93;5.22;;;;;;;4.00;85.69;99336.44;1086762;54;20031;-78
2022/11/19 17:07:00;;;;;;;6.53;4.63;;;;;;;4.12;85.41;99337.28;1086729;54;20046;-79
2022/11/19 17:08:04;;;;;;;6.57;4.88;;;;;;;4.13;85.30;99335.47;1086642;54;20085;-78
2022/11/19 17:09:08;;;;;;;7.75;5.50;;;;;;;4.16;85.35;99332.56;1086590;54;20057;-77
2022/11/19 17:10:30;;;;;;;7.18;5.10;;;;;;;4.18;85.50;99334.13;1086580;54;20038;-77
2022/11/19 17:13:28;;;;;;;7.45;5.15;;;;;;;4.30;85.09;99345.53;1086024;54;20042;-77
2022/11/19 17:14:46;;;;;;;8.25;5.13;;;;;;;4.33;85.17;99347.13;1086650;54;20054;-79
2022/11/19 17:15:51;;;;;;;10.20;5.28;;;;;;;4.29;84.79;99343.03;1086676;54;20038;-78
2022/11/19 17:16:53;;;;;;;8.25;5.28;;;;;;;4.16;85.09;99346.63;1086705;54;20054;-79
2022/11/19 17:17:57;;;;;;;6.82;5.03;;;;;;;4.27;84.98;99352.88;1086591;54;20034;-77
2022/11/19 17:18:59;;;;;;;7.35;5.05;;;;;;;4.27;84.80;99347.59;1086485;54;20038;-79
2022/11/19 17:20:03;;;;;;;7.05;5.10;;;;;;;4.35;84.82;99353.97;1086594;54;20031;-78
2022/11/19 17:21:07;;;;;;;8.73;5.70;;;;;;;4.24;84.32;99348.69;1086682;54;20094;-78
2022/11/19 17:22:20;;;;;;;8.10;5.40;;;;;;;4.18;84.93;99359.75;1086823;54;20027;-78
2022/11/19 17:23:26;;;;;;;7.53;5.13;;;;;;;4.21;85.03;99354.22;1087034;39;20218;-77
2022/11/19 17:24:33;;;;;;;8.27;5.72;;;;;;;4.17;85.01;99353.63;1086688;54;20066;-79
2022/11/19 17:25:43;;;;;;;8.77;5.63;;;;;;;4.13;85.01;99357.47;1086630;54;20670;-78
2022/11/19 17:26:50;;;;;;;7.45;5.22;;;;;;;4.14;85.28;99358.31;1086745;54;20031;-78
2022/11/19 17:27:57;;;;;;;9.82;5.95;;;;;;;4.10;85.40;99359.53;1086681;47;20047;-78
2022/11/19 17:29:11;;;;;;;8.25;5.82;;;;;;;4.14;85.83;99361.81;1086671;54;20168;-77
2022/11/19 17:30:20;;;;;;;6.82;4.70;;;;;;;4.25;85.60;99354.84;1090191;39;20655;-79
2022/11/19 17:31:26;;;;;;;8.02;5.15;;;;;;;4.31;85.27;99357.00;1086909;54;20073;-78
2022/11/19 17:32:33;;;;;;;7.40;5.38;;;;;;;4.25;85.08;99358.31;1086807;54;20049;-79
2022/11/19 17:33:38;;;;;;;8.82;6.20;;;;;;;4.27;84.86;99352.88;1086711;54;20200;-77
2022/11/19 17:34:47;;;;;;;9.32;6.20;;;;;;;4.28;85.18;99362.50;1086673;54;20177;-78
2022/11/19 17:35:52;;;;;;;9.97;6.73;;;;;;;4.26;84.88;99364.44;1087543;47;20046;-79
2022/11/19 17:36:54;;;;;;;9.00;5.75;;;;;;;4.30;84.99;99363.25;1086299;54;20043;-78
2022/11/19 17:37:58;;;;;;;7.22;5.32;;;;;;;4.36;84.68;99360.09;1086457;54;20041;-79
2022/11/19 17:39:03;;;;;;;8.50;5.97;;;;;;;4.26;84.31;99367.06;1086554;54;20066;-79
2022/11/19 17:40:06;;;;;;;9.95;6.45;;;;;;;4.19;84.43;99367.56;1086695;54;20766;-78
2022/11/19 17:44:30;;;;;;;7.30;5.03;;;;;;;4.21;84.34;99367.44;1086549;54;20058;-78
2022/11/19 17:45:16;;;;;;;8.48;6.07;;;;;;;4.08;84.78;99364.91;1087330;54;20037;-77
2022/11/19 17:46:18;;;;;;;8.85;6.30;;;;;;;4.08;84.70;99364.09;1087430;54;20065;-77
2022/11/19 17:47:23;;;;;;;8.32;5.88;;;;;;;4.07;84.57;99368.53;1088192;46;20055;-78
2022/11/19 17:48:26;;;;;;;9.68;7.45;;;;;;;4.07;84.71;99363.22;1087124;39;20085;-77
2022/11/19 17:49:31;;;;;;;8.95;6.78;;;;;;;3.97;85.08;99373.69;1087113;54;20046;-79
2022/11/19 17:50:35;;;;;;;9.05;6.22;;;;;;;4.00;84.84;99372.63;1086848;54;20050;-77
2022/11/19 17:51:36;;;;;;;8.85;6.30;;;;;;;3.93;84.98;99371.41;1086968;54;20034;-78
2022/11/19 17:52:40;;;;;;;10.35;7.03;;;;;;;3.81;85.01;99371.38;1086995;54;20034;-79
2022/11/19 17:53:42;;;;;;;10.05;7.20;;;;;;;3.78;85.36;99373.44;1086956;54;20057;-79
2022/11/19 17:54:46;;;;;;;9.88;7.75;;;;;;;3.75;86.10;99380.63;1087029;54;20773;-78
2022/11/19 17:55:54;;;;;;;10.00;6.80;;;;;;;3.75;86.03;99379.81;1086880;54;20063;-78
2022/11/19 17:56:55;;;;;;;9.73;6.95;;;;;;;3.74;86.15;99378.13;1087123;54;20042;-78
2022/11/19 17:57:59;;;;;;;9.63;7.05;;;;;;;3.73;86.00;99381.72;1087055;54;20046;-78
2022/11/19 17:59:01;;;;;;;8.70;6.40;;;;;;;3.75;85.97;99385.91;1087118;54;20090;-78
2022/11/19 18:00:06;;;;;;;8.98;6.82;;;;;;;3.74;85.42;99389.53;1087075;54;20037;-79
2022/11/19 18:01:10;;;;;;;8.45;6.43;;;;;;;3.73;85.65;99385.19;1087241;54;20042;-78
2022/11/19 18:02:16;;;;;;;9.02;6.55;;;;;;;3.72;85.32;99388.81;1087106;54;20640;-78
2022/11/19 18:03:18;;;;;;;9.75;7.28;;;;;;;3.73;85.17;99390.47;1087137;54;20042;-78
2022/11/19 18:04:23;;;;;;;9.57;7.05;;;;;;;3.74;85.25;99388.69;1087203;54;20034;-77
2022/11/19 18:05:28;;;;;;;9.07;6.82;;;;;;;3.78;85.18;99392.78;1086919;54;20687;-78
2022/11/19 18:06:32;;;;;;;9.20;6.32;;;;;;;3.74;85.00;99384.22;1087156;54;20094;-78
2022/11/19 18:07:34;;;;;;;10.10;7.18;;;;;;;3.77;85.01;99383.19;1087086;54;20043;-77
2022/11/19 18:08:39;;;;;;;9.55;6.72;;;;;;;3.78;84.97;99395.41;1087211;54;20037;-77
2022/11/19 18:09:40;;;;;;;9.52;6.40;;;;;;;3.83;84.87;99390.63;1087304;54;20050;-78
2022/11/19 18:10:47;;;;;;;12.60;7.22;;;;;;;3.81;85.04;99392.53;1087290;54;20034;-78
2022/11/19 18:11:51;;;;;;;10.43;6.68;;;;;;;3.88;84.96;99392.91;1087295;54;20038;-78
2022/11/19 18:12:53;;;;;;;9.27;6.10;;;;;;;3.97;84.41;99388.75;1087359;46;20030;-78
2022/11/19 18:14:00;;;;;;;9.27;6.75;;;;;;;4.01;84.43;99384.88;1086579;54;20927;-78
2022/11/19 18:15:05;;;;;;;9.13;6.68;;;;;;;3.90;84.68;99383.91;1087077;54;20037;-78
2022/11/19 18:16:17;;;;;;;9.10;6.60;;;;;;;3.83;85.00;99393.28;1087252;54;20047;-78
2022/11/19 18:17:18;;;;;;;10.38;7.15;;;;;;;3.80;85.27;99390.84;1086959;54;20064;-78
2022/11/19 18:18:22;;;;;;;10.35;7.50;;;;;;;3.82;85.10;99386.31;1087181;54;20058;-78
2022/11/19 18:19:25;;;;;;;9.18;6.90;;;;;;;3.89;85.33;99395.44;1087109;54;20042;-79
2022/11/19 18:20:29;;;;;;;7.82;6.00;;;;;;;3.98;84.94;99395.69;1087060;54;20037;-78
2022/11/19 18:21:33;;;;;;;10.52;7.03;;;;;;;4.07;84.89;99387.03;1087221;54;20046;-78
2022/11/19 18:22:38;;;;;;;9.18;6.85;;;;;;;4.02;84.82;99394.50;1087167;54;20034;-78
2022/11/19 18:23:42;;;;;;;9.63;7.35;;;;;;;4.10;84.79;99400.03;1087167;54;20931;-78
2022/11/19 18:24:46;;;;;;;9.63;7.35;;;;;;;4.14;84.91;99403.28;1087082;54;20142;-78
2022/11/19 18:25:50;;;;;;;9.63;7.53;;;;;;;4.16;84.73;99396.91;1087308;46;20035;-79
2022/11/19 18:26:55;;;;;;;9.65;7.00;;;;;;;4.11;83.89;99403.53;1086896;54;20046;-78
2022/11/19 18:27:56;;;;;;;10.50;7.80;;;;;;;4.04;84.27;99400.53;1086974;54;20050;-78
2022/11/19 18:29:00;;;;;;;9.27;7.03;;;;;;;4.12;84.43;99402.56;1087247;54;20026;-77
2022/11/19 18:30:02;;;;;;;10.77;8.18;;;;;;;4.13;84.43;99404.25;1086789;54;20064;-79
2022/11/19 18:31:06;;;;;;;13.65;9.73;;;;;;;4.16;84.16;99404.00;1087065;54;20127;-79
2022/11/19 18:32:15;;;;;;;11.70;8.48;;;;;;;4.18;84.18;99402.94;1086956;54;20124;-78
2022/11/19 18:33:18;;;;;;;10.75;7.53;;;;;;;4.09;84.37;99408.94;1087031;54;20053;-80
2022/11/19 18:34:24;;;;;;;11.65;8.02;;;;;;;4.07;84.36;99400.25;1087059;54;20039;-78
2022/11/19 18:35:31;;;;;;;11.30;8.38;;;;;;;3.98;84.58;99395.69;1086909;54;20054;-79
2022/11/19 18:36:32;;;;;;;10.85;7.82;;;;;;;3.96;84.69;99402.91;1087031;54;20027;-79
2022/11/19 18:37:36;;;;;;;9.85;7.45;;;;;;;3.97;84.90;99400.16;1086930;54;20101;-79
2022/11/19 18:38:40;;;;;;;11.73;8.30;;;;;;;3.95;84.86;99403.88;1087083;54;20046;-78
2022/11/19 18:39:42;;;;;;;11.00;7.22;;;;;;;4.03;84.92;99409.41;1087013;54;20054;-77
2022/11/19 18:40:46;;;;;;;10.60;7.90;;;;;;;4.03;84.92;99404.94;1086993;54;20042;-78
2022/11/19 18:41:47;;;;;;;11.77;8.82;;;;;;;3.90;85.19;99407.69;1087038;54;20050;-78
2022/11/19 18:45:35;;;;;;;10.40;7.72;;;;;;;4.05;84.94;99408.31;1086561;54;20113;-78
2022/11/19 18:46:36;;;;;;;11.55;8.75;;;;;;;3.97;85.04;99408.09;1086398;54;20106;-79
2022/11/19 18:47:43;;;;;;;11.63;9.10;;;;;;;3.90;85.27;99410.34;1086528;54;20030;-78
2022/11/19 18:48:47;;;;;;;12.30;9.13;;;;;;;3.94;85.37;99410.13;1086557;54;20061;-79
2022/11/19 18:49:51;;;;;;;11.57;8.52;;;;;;;3.99;85.56;99413.25;1086376;54;20038;-78
2022/11/19 18:50:52;;;;;;;10.73;8.23;;;;;;;4.09;85.44;99416.03;1086486;54;20145;-78
2022/11/19 18:51:57;;;;;;;12.38;9.48;;;;;;;4.10;85.23;99417.72;1086468;54;20034;-79
2022/11/19 18:53:01;;;;;;;10.02;7.53;;;;;;;4.13;84.98;99415.69;1086399;54;20073;-79
2022/11/19 18:54:02;;;;;;;14.07;10.55;;;;;;;4.01;85.21;99411.34;1086645;54;20046;-78
2022/11/19 18:55:08;;;;;;;13.07;9.88;;;;;;;4.06;85.32;99412.66;1086489;54;20038;-78
2022/11/19 18:56:13;;;;;;;13.93;10.15;;;;;;;3.97;85.20;99416.00;1086623;54;20865;-78
2022/11/19 18:57:17;;;;;;;14.10;10.85;;;;;;;3.99;85.08;99415.88;1086482;54;20031;-78